Tuscaloosa, AL (35486)

12:55 AM CST on February 28, 2017 (GMT -0600)
Guilds Wood | | Change Station
Active Advisory: Dense Fog Advisory

Elev 210 ft 33.22 °N, 87.56 °W | Updated 59 seconds ago

Overcast
Overcast
57.3 °F
Feels Like 57.3 °F
N
0.0
Wind Variable Wind from ESE
Gusts 1.0 mph

Today
High -- | Low -- °F
--% Chance of Precip.
Yesterday
High -- | Low -- °F
Precip. -- in
Pressure 30.19 in
Visibility 10.0 miles
Clouds Overcast 600 ft
Dew Point 56 °F
Humidity 97%
Rainfall 0.00 in
Snow Depth Not available.
6:19 AM 5:46 PM
Waxing Crescent, 3% visible
METAR KTCL 280653Z AUTO 10003KT 10SM OVC006 14/13 A3019 RMK AO2 SLP223 T01390133
Pressure 30.19 in
Visibility 10.0 miles
Clouds Overcast 600 ft
Dew Point 56 °F
Humidity 97%
Rainfall 0.00 in
Snow Depth Not available.
6:19 AM 5:46 PM
Waxing Crescent, 3% visible
METAR KTCL 280653Z AUTO 10003KT 10SM OVC006 14/13 A3019 RMK AO2 SLP223 T01390133

Get Your Daily Forecast Email!

Thanks for signing up!

Be on the lookout for a verification email in your inbox.

You'll start receiving the daily forecast at 8 AM.

×

10-Day Weather Forecast

Almanac

Astronomy

Feb. 28, 2017 Rise Set
Actual Time
Civil Twilight
Nautical Twilight
Astronomical Twilight
Moon
Length of Visible Light
Length of Day
Tomorrow will be .
, % of the Moon is Illuminated

Today's Extremes

State Highs State Lows

Community

WunderPhotos

Upload Photos

1,962,540 photos uploaded!

WunderBlog® & News

Nearby

Air Quality

  Air Quality AQ Index Pollutant
Not available.

Snow Depth

Station Depth Elevation

Earthquake Activity

City Distance Mag. Time & Date
Minimum magnitude displayed is 2.5.

Coastal Water Temperatures

Place Temperature

Stations

Nearby Weather Stations

Station Location Temp. Windchill Dew Point Humidity Wind Precip. Elev Updated Type
                   

Watches & Warnings

Dense Fog Advisory
Issued: 10:25 PM CST Feb. 27, 2017 – National Weather Service

... Dense fog advisory in effect until 9 am CST Tuesday...

The National Weather Service in Birmingham has issued a dense fog
advisory, which is in effect until 9 am CST Tuesday.

* Visibility... around one quarter of a mile or less at times

* impacts... poor visibility will result in hazardous travel
conditions.

Precautionary/preparedness actions...

A dense fog advisory means visibilities will frequently be
reduced to less than one quarter mile. If driving... slow down...
use your headlights... and leave plenty of distance ahead of you.